createdAt,value
2023-04-22T00:02:17.351Z,9.63
2023-04-22T00:04:47.399Z,9.57
2023-04-22T00:07:15.885Z,9.61
2023-04-22T00:09:43.241Z,9.51
2023-04-22T00:12:11.912Z,9.32
2023-04-22T00:14:38.969Z,9.15
2023-04-22T00:17:07.184Z,9.06
2023-04-22T00:19:34.712Z,8.87
2023-04-22T00:22:01.782Z,8.93
2023-04-22T00:24:29.447Z,8.94
2023-04-22T00:26:56.686Z,8.93
2023-04-22T00:29:23.497Z,8.97
2023-04-22T00:31:50.379Z,8.90
2023-04-22T00:34:20.484Z,8.88
2023-04-22T00:36:47.630Z,8.90
2023-04-22T00:39:15.112Z,8.85
2023-04-22T00:41:42.125Z,8.83
2023-04-22T00:44:12.632Z,8.83
2023-04-22T00:46:40.358Z,8.89
2023-04-22T00:49:08.129Z,8.97
2023-04-22T00:51:35.359Z,9.00
2023-04-22T00:54:02.451Z,9.18
2023-04-22T00:56:31.456Z,9.17
2023-04-22T00:58:58.809Z,9.05
2023-04-22T01:01:25.755Z,8.97
2023-04-22T01:03:53.349Z,8.96
2023-04-22T01:06:20.493Z,8.91
2023-04-22T01:08:48.056Z,9.01
2023-04-22T01:11:16.076Z,9.02
2023-04-22T01:13:43.080Z,9.07
2023-04-22T01:16:10.300Z,9.12
2023-04-22T01:18:37.335Z,9.15
2023-04-22T01:21:04.404Z,9.13
2023-04-22T01:23:31.292Z,9.17
2023-04-22T01:25:58.181Z,9.17
2023-04-22T01:28:25.877Z,9.15
2023-04-22T01:30:54.280Z,9.18
2023-04-22T01:33:21.072Z,9.20
2023-04-22T01:35:47.815Z,9.21
2023-04-22T01:38:14.507Z,9.23
2023-04-22T01:40:41.461Z,9.16
2023-04-22T01:43:08.230Z,9.11
2023-04-22T01:45:35.330Z,9.09
2023-04-22T01:48:02.605Z,9.20
2023-04-22T01:50:29.430Z,9.28
2023-04-22T01:52:57.375Z,9.34
2023-04-22T01:55:24.388Z,9.33
2023-04-22T01:57:52.341Z,9.35
2023-04-22T02:00:19.302Z,9.33
2023-04-22T02:02:48.043Z,9.32
2023-04-22T02:05:15.894Z,9.34
2023-04-22T02:07:45.396Z,9.39
2023-04-22T02:10:16.048Z,9.36
2023-04-22T02:12:42.781Z,9.41
2023-04-22T02:15:10.122Z,9.43
2023-04-22T02:17:36.896Z,9.48
2023-04-22T02:20:05.228Z,9.46
2023-04-22T02:22:32.608Z,9.44
2023-04-22T02:24:59.293Z,9.44
2023-04-22T02:27:25.949Z,9.44
2023-04-22T02:29:52.624Z,9.46
2023-04-22T02:32:19.653Z,9.22
2023-04-22T02:34:47.832Z,9.02
2023-04-22T02:37:14.582Z,8.90
2023-04-22T02:39:41.495Z,8.74
2023-04-22T02:42:08.455Z,8.65
2023-04-22T02:44:35.219Z,8.45
2023-04-22T02:47:03.811Z,8.43
2023-04-22T02:49:30.618Z,8.41
2023-04-22T02:51:57.450Z,8.39
2023-04-22T02:54:24.152Z,8.42
2023-04-22T02:56:51.005Z,8.41
2023-04-22T02:59:17.660Z,8.38
2023-04-22T03:01:44.478Z,8.28
2023-04-22T03:04:21.993Z,8.31
2023-04-22T03:06:49.801Z,8.32
2023-04-22T03:09:17.418Z,8.36
2023-04-22T03:11:44.516Z,8.44
2023-04-22T03:14:11.307Z,8.47
2023-04-22T03:16:38.782Z,8.45
2023-04-22T03:19:05.973Z,8.45
2023-04-22T03:21:32.742Z,8.40
2023-04-22T03:24:00.187Z,8.40
2023-04-22T03:26:31.118Z,8.46
2023-04-22T03:28:58.959Z,8.48
2023-04-22T03:31:25.723Z,8.50
2023-04-22T03:33:52.541Z,8.46
2023-04-22T03:36:27.681Z,8.47
2023-04-22T03:38:54.887Z,8.35
2023-04-22T03:41:23.588Z,8.34
2023-04-22T03:43:50.277Z,8.28
2023-04-22T03:46:17.627Z,8.26
2023-04-22T03:48:52.839Z,8.24
2023-04-22T03:51:27.813Z,8.20
2023-04-22T03:53:54.957Z,8.16
2023-04-22T03:56:24.722Z,8.20
2023-04-22T03:58:54.676Z,8.20
2023-04-22T04:01:21.683Z,8.21
2023-04-22T04:03:51.287Z,8.15
2023-04-22T04:06:19.360Z,8.15
2023-04-22T04:08:46.218Z,8.16
2023-04-22T04:11:13.062Z,8.15
2023-04-22T04:13:39.879Z,8.22
2023-04-22T04:16:16.862Z,8.27
2023-04-22T04:18:49.477Z,8.22
2023-04-22T04:21:16.186Z,8.24
2023-04-22T04:23:47.891Z,8.23
2023-04-22T04:26:18.109Z,8.22
2023-04-22T04:28:49.277Z,8.20
2023-04-22T04:31:17.726Z,8.18
2023-04-22T04:33:44.655Z,8.22
2023-04-22T04:36:11.396Z,8.21
2023-04-22T04:38:39.169Z,8.22
2023-04-22T04:41:05.858Z,8.17
2023-04-22T04:43:33.501Z,8.16
2023-04-22T04:46:10.947Z,8.15
2023-04-22T04:48:38.652Z,8.18
2023-04-22T04:51:08.050Z,8.23
2023-04-22T04:53:40.266Z,8.32
2023-04-22T04:56:06.987Z,8.37
2023-04-22T04:58:34.775Z,8.41
2023-04-22T05:01:10.302Z,8.49
2023-04-22T05:03:37.374Z,8.53
2023-04-22T05:06:05.348Z,8.57
2023-04-22T05:08:32.932Z,8.58
2023-04-22T05:11:05.701Z,8.61
2023-04-22T05:13:32.586Z,8.58
2023-04-22T05:16:00.233Z,8.58
2023-04-22T05:18:27.451Z,8.61
2023-04-22T05:20:55.424Z,8.75
2023-04-22T05:23:22.635Z,8.84
2023-04-22T05:25:53.503Z,8.93
2023-04-22T05:28:20.827Z,8.90
2023-04-22T05:30:52.133Z,8.84
2023-04-22T05:33:18.844Z,8.81
2023-04-22T05:35:45.651Z,8.81
2023-04-22T05:38:12.940Z,8.85
2023-04-22T05:40:41.531Z,8.92
2023-04-22T05:43:10.867Z,8.98
2023-04-22T05:45:41.033Z,8.84
2023-04-22T05:48:10.546Z,8.91
2023-04-22T05:50:43.931Z,8.86
2023-04-22T05:53:10.611Z,8.91
2023-04-22T05:55:37.379Z,8.96
2023-04-22T05:58:07.162Z,8.96
2023-04-22T06:00:54.390Z,9.02
2023-04-22T06:03:49.291Z,9.10
2023-04-22T06:06:16.485Z,9.13
2023-04-22T06:08:43.142Z,9.04
2023-04-22T06:11:11.104Z,9.12
2023-04-22T06:13:37.911Z,9.23
2023-04-22T06:16:06.142Z,9.27
2023-04-22T06:18:36.006Z,9.30
2023-04-22T06:21:05.056Z,9.18
2023-04-22T06:23:31.721Z,9.19
2023-04-22T06:25:58.649Z,9.16
2023-04-22T06:28:25.335Z,9.27
2023-04-22T06:30:55.769Z,9.35
2023-04-22T06:33:22.611Z,9.33
2023-04-22T06:35:50.544Z,9.35
2023-04-22T06:38:17.436Z,9.46
2023-04-22T06:41:02.874Z,9.51
2023-04-22T06:43:34.395Z,9.50
2023-04-22T06:46:19.723Z,9.52
2023-04-22T06:49:09.213Z,9.61
2023-04-22T06:52:02.162Z,9.76
2023-04-22T06:54:28.993Z,9.82
2023-04-22T06:56:55.765Z,9.87
2023-04-22T06:59:23.695Z,9.95
2023-04-22T07:01:50.575Z,10.06
2023-04-22T07:04:17.540Z,10.01
2023-04-22T07:06:44.749Z,9.98
2023-04-22T07:09:12.631Z,9.98
2023-04-22T07:11:39.434Z,9.96
2023-04-22T07:14:12.210Z,9.90
2023-04-22T07:16:39.144Z,10.01
2023-04-22T07:19:08.813Z,10.15
2023-04-22T07:21:35.520Z,10.26
2023-04-22T07:24:02.174Z,10.39
2023-04-22T07:26:28.952Z,10.56
2023-04-22T07:28:55.609Z,10.67
2023-04-22T07:31:22.326Z,10.64
2023-04-22T07:33:49.103Z,10.71
2023-04-22T07:36:15.760Z,10.99
2023-04-22T07:38:42.442Z,11.24
2023-04-22T07:41:09.072Z,11.39
2023-04-22T07:43:35.803Z,11.47
2023-04-22T07:46:02.692Z,11.56
2023-04-22T07:48:29.474Z,11.72
2023-04-22T07:50:56.258Z,11.82
2023-04-22T07:53:22.914Z,11.90
2023-04-22T07:55:49.853Z,12.01
2023-04-22T07:58:17.231Z,12.17
2023-04-22T08:00:43.959Z,12.37
2023-04-22T08:03:11.022Z,12.47
2023-04-22T08:05:37.850Z,12.57
2023-04-22T08:08:05.243Z,12.59
2023-04-22T08:10:31.983Z,12.80
2023-04-22T08:12:58.743Z,12.88
2023-04-22T08:15:25.747Z,12.94
2023-04-22T08:17:52.483Z,13.31
2023-04-22T08:20:19.173Z,13.44
2023-04-22T08:22:47.132Z,13.58
2023-04-22T08:25:13.749Z,13.86
2023-04-22T08:27:40.436Z,14.21
2023-04-22T08:30:07.593Z,14.56
2023-04-22T08:32:34.583Z,14.68
2023-04-22T08:35:04.836Z,14.67
2023-04-22T08:37:32.124Z,14.27
2023-04-22T08:39:58.763Z,14.15
2023-04-22T08:42:27.242Z,14.04
2023-04-22T08:44:57.128Z,14.30
2023-04-22T08:47:25.262Z,14.55
2023-04-22T08:49:55.171Z,14.74
2023-04-22T08:52:22.132Z,14.98
2023-04-22T08:54:48.780Z,15.01
2023-04-22T08:57:16.524Z,15.07
2023-04-22T08:59:43.320Z,15.13
2023-04-22T09:02:19.332Z,15.35
2023-04-22T09:04:48.004Z,15.57
2023-04-22T09:07:23.669Z,15.90
2023-04-22T09:09:50.425Z,16.10
2023-04-22T09:12:19.087Z,16.16
2023-04-22T09:14:45.882Z,16.18
2023-04-22T09:17:16.939Z,16.47
2023-04-22T09:19:43.639Z,16.60
2023-04-22T09:22:14.258Z,16.83
2023-04-22T09:24:50.103Z,16.94
2023-04-22T09:27:21.639Z,16.94
2023-04-22T09:29:50.165Z,16.88
2023-04-22T09:32:17.781Z,16.76
2023-04-22T09:34:54.908Z,16.71
2023-04-22T09:37:26.426Z,16.66
2023-04-22T09:39:57.625Z,16.55
2023-04-22T09:42:24.296Z,16.53
2023-04-22T09:44:54.901Z,16.53
2023-04-22T09:47:23.841Z,16.49
2023-04-22T09:49:50.794Z,16.33
2023-04-22T09:52:27.070Z,16.31
2023-04-22T09:54:54.642Z,16.19
2023-04-22T09:57:22.125Z,16.18
2023-04-22T09:59:52.993Z,16.16
2023-04-22T10:02:29.867Z,16.11
2023-04-22T10:04:58.441Z,16.02
2023-04-22T10:07:31.340Z,16.17
2023-04-22T10:09:58.218Z,16.76
2023-04-22T10:12:35.298Z,17.62
2023-04-22T10:15:09.162Z,17.72
2023-04-22T10:17:38.502Z,17.84
2023-04-22T10:20:13.563Z,18.04
2023-04-22T10:22:42.865Z,17.87
2023-04-22T10:25:14.077Z,17.43
2023-04-22T10:27:40.794Z,17.32
2023-04-22T10:30:09.017Z,17.34
2023-04-22T10:32:36.368Z,17.57
2023-04-22T10:35:12.291Z,17.61
2023-04-22T10:37:42.064Z,17.43
2023-04-22T10:40:18.715Z,17.46
2023-04-22T10:42:53.160Z,17.63
2023-04-22T10:45:24.937Z,17.80
2023-04-22T10:47:51.722Z,17.95
2023-04-22T10:50:26.668Z,18.55
2023-04-22T10:53:04.574Z,18.81
2023-04-22T10:55:52.015Z,18.83
2023-04-22T10:58:20.802Z,18.73
2023-04-22T11:00:54.262Z,18.65
2023-04-22T11:03:27.556Z,18.66
2023-04-22T11:06:17.760Z,18.79
2023-04-22T11:08:46.560Z,19.02
2023-04-22T11:11:16.017Z,19.20
2023-04-22T11:13:47.501Z,19.14
2023-04-22T11:16:14.361Z,19.35
2023-04-22T11:18:41.299Z,19.48
2023-04-22T11:21:09.349Z,19.49
2023-04-22T11:23:38.851Z,19.81
2023-04-22T11:26:07.127Z,19.59
2023-04-22T11:28:33.945Z,19.35
2023-04-22T11:31:06.501Z,19.34
2023-04-22T11:33:34.729Z,19.45
2023-04-22T11:36:01.761Z,19.71
2023-04-22T11:38:28.676Z,19.72
2023-04-22T11:40:58.410Z,20.15
2023-04-22T11:43:25.292Z,20.35
2023-04-22T11:45:52.070Z,20.39
2023-04-22T11:48:18.886Z,20.16
2023-04-22T11:50:45.815Z,20.38
2023-04-22T11:53:16.678Z,20.11
2023-04-22T11:55:45.197Z,19.67
2023-04-22T11:58:13.217Z,19.81
2023-04-22T12:00:45.525Z,19.78
2023-04-22T12:03:14.730Z,19.53
2023-04-22T12:05:43.608Z,19.83
2023-04-22T12:08:16.234Z,20.03
2023-04-22T12:10:48.524Z,20.17
2023-04-22T12:13:20.988Z,20.14
2023-04-22T12:15:48.604Z,19.91
2023-04-22T12:18:15.567Z,19.82
2023-04-22T12:20:42.759Z,19.76
2023-04-22T12:23:14.577Z,19.94
2023-04-22T12:25:41.866Z,20.11
2023-04-22T12:28:08.902Z,20.19
2023-04-22T12:30:35.614Z,19.93
2023-04-22T12:33:02.284Z,20.11
2023-04-22T12:35:28.979Z,20.29
2023-04-22T12:37:55.782Z,20.44
2023-04-22T12:40:22.646Z,20.22
2023-04-22T12:42:49.322Z,20.23
2023-04-22T12:45:16.857Z,20.22
2023-04-22T12:47:45.201Z,20.47
2023-04-22T12:50:12.142Z,20.49
2023-04-22T12:52:38.899Z,20.39
2023-04-22T12:55:05.914Z,20.15
2023-04-22T12:57:32.838Z,20.12
2023-04-22T12:59:59.766Z,20.12
2023-04-22T13:02:26.540Z,19.87
2023-04-22T13:04:53.236Z,19.87
2023-04-22T13:07:19.964Z,19.91
2023-04-22T13:09:46.802Z,19.92
2023-04-22T13:12:13.498Z,19.78
2023-04-22T13:14:40.284Z,19.80
2023-04-22T13:17:06.939Z,19.92
2023-04-22T13:19:35.306Z,19.74
2023-04-22T13:22:02.580Z,19.67
2023-04-22T13:24:29.533Z,19.46
2023-04-22T13:26:56.407Z,19.45
2023-04-22T13:29:23.613Z,19.57
2023-04-22T13:31:50.374Z,19.64
2023-04-22T13:34:17.108Z,19.55
2023-04-22T13:36:43.767Z,19.47
2023-04-22T13:39:10.668Z,19.55
2023-04-22T13:41:37.317Z,19.46
2023-04-22T13:44:04.518Z,19.32
2023-04-22T13:46:31.194Z,19.25
2023-04-22T13:48:58.678Z,19.33
2023-04-22T13:51:25.454Z,19.52
2023-04-22T13:53:52.112Z,19.53
2023-04-22T13:56:18.776Z,19.49
2023-04-22T13:58:45.491Z,19.39
2023-04-22T14:01:12.328Z,19.32
2023-04-22T14:03:39.108Z,19.28
2023-04-22T14:06:06.437Z,18.96
2023-04-22T14:08:33.104Z,18.86
2023-04-22T14:11:00.061Z,18.79
2023-04-22T14:13:27.498Z,18.83
2023-04-22T14:15:54.203Z,18.83
2023-04-22T14:18:23.201Z,18.87
2023-04-22T14:20:51.222Z,18.98
2023-04-22T14:23:18.876Z,19.12
2023-04-22T14:25:47.527Z,19.24
2023-04-22T14:28:16.201Z,19.21
2023-04-22T14:30:43.192Z,19.18
2023-04-22T14:33:10.055Z,19.19
2023-04-22T14:35:37.551Z,18.99
2023-04-22T14:38:08.597Z,18.96
2023-04-22T14:40:35.716Z,18.96
2023-04-22T14:43:04.623Z,18.94
2023-04-22T14:45:31.795Z,18.92
2023-04-22T14:47:58.975Z,18.81
2023-04-22T14:50:26.151Z,18.79
2023-04-22T14:52:53.418Z,18.83
2023-04-22T14:55:23.785Z,18.84
2023-04-22T14:57:53.777Z,18.79
2023-04-22T15:00:20.632Z,18.62
2023-04-22T15:02:47.522Z,18.58
2023-04-22T15:05:14.327Z,18.54
2023-04-22T15:07:40.984Z,18.41
2023-04-22T15:10:08.408Z,18.40
2023-04-22T15:12:35.087Z,18.33
2023-04-22T15:15:01.734Z,18.37
2023-04-22T15:17:30.643Z,18.29
2023-04-22T15:19:57.930Z,18.27
2023-04-22T15:22:25.386Z,18.22
2023-04-22T15:24:52.144Z,18.17
2023-04-22T15:27:19.022Z,18.09
2023-04-22T15:29:46.546Z,18.10
2023-04-22T15:32:13.312Z,18.10
2023-04-22T15:34:40.057Z,18.07
2023-04-22T15:37:06.692Z,18.03
2023-04-22T15:39:33.471Z,18.00
2023-04-22T15:42:00.139Z,18.00
2023-04-22T15:44:28.202Z,17.99
2023-04-22T15:46:55.133Z,17.99
2023-04-22T15:49:21.822Z,17.99
2023-04-22T15:51:48.437Z,17.93
2023-04-22T15:54:15.092Z,17.97
2023-04-22T15:56:41.759Z,17.98
2023-04-22T15:59:08.447Z,17.98
2023-04-22T16:01:35.512Z,17.98
2023-04-22T16:04:02.346Z,18.00
2023-04-22T16:06:29.098Z,18.01
2023-04-22T16:08:55.809Z,18.02
2023-04-22T16:11:22.468Z,18.05
2023-04-22T16:13:49.111Z,18.06
2023-04-22T16:16:16.641Z,18.04
2023-04-22T16:18:44.382Z,18.08
2023-04-22T16:21:11.300Z,18.07
2023-04-22T16:23:38.016Z,18.08
2023-04-22T16:26:05.841Z,18.08
2023-04-22T16:28:32.584Z,18.08
2023-04-22T16:30:59.353Z,18.11
2023-04-22T16:33:26.080Z,18.10
2023-04-22T16:35:52.824Z,18.10
2023-04-22T16:38:19.509Z,18.09
2023-04-22T16:40:46.405Z,18.10
2023-04-22T16:43:13.197Z,18.06
2023-04-22T16:45:40.032Z,18.00
2023-04-22T16:48:06.841Z,17.98
2023-04-22T16:50:33.581Z,17.93
2023-04-22T16:53:00.277Z,17.89
2023-04-22T16:55:26.930Z,17.82
2023-04-22T16:57:53.596Z,17.72
2023-04-22T17:00:20.939Z,17.70
2023-04-22T17:02:47.729Z,17.64
2023-04-22T17:05:14.618Z,17.53
2023-04-22T17:07:41.481Z,17.44
2023-04-22T17:10:08.757Z,17.38
2023-04-22T17:12:35.510Z,17.29
2023-04-22T17:15:02.262Z,17.29
2023-04-22T17:17:28.975Z,17.26
2023-04-22T17:19:55.624Z,17.18
2023-04-22T17:22:24.782Z,17.15
2023-04-22T17:24:52.044Z,17.06
2023-04-22T17:27:19.242Z,17.01
2023-04-22T17:29:46.530Z,16.95
2023-04-22T17:32:13.178Z,16.90
2023-04-22T17:34:40.090Z,16.81
2023-04-22T17:37:07.144Z,16.70
2023-04-22T17:39:33.868Z,16.63
2023-04-22T17:42:00.713Z,16.58
2023-04-22T17:44:27.406Z,16.53
2023-04-22T17:46:54.233Z,16.52
2023-04-22T17:49:20.892Z,16.54
2023-04-22T17:51:47.529Z,16.52
2023-04-22T17:54:14.281Z,16.49
2023-04-22T17:56:40.961Z,16.46
2023-04-22T17:59:07.738Z,16.49
2023-04-22T18:01:34.481Z,16.45
2023-04-22T18:04:01.515Z,16.41
2023-04-22T18:06:29.144Z,16.39
2023-04-22T18:08:55.871Z,16.43
2023-04-22T18:11:22.980Z,16.37
2023-04-22T18:13:49.783Z,16.35
2023-04-22T18:16:16.499Z,16.33
2023-04-22T18:18:43.155Z,16.29
2023-04-22T18:21:09.787Z,16.23
2023-04-22T18:23:36.543Z,16.24
2023-04-22T18:26:09.672Z,16.18
2023-04-22T18:28:39.728Z,16.15
2023-04-22T18:31:09.444Z,16.13
2023-04-22T18:33:36.520Z,16.07
2023-04-22T18:36:03.474Z,16.01
2023-04-22T18:38:30.203Z,15.90
2023-04-22T18:40:56.881Z,15.76
2023-04-22T18:43:23.596Z,15.63
2023-04-22T18:45:51.034Z,15.55
2023-04-22T18:48:18.880Z,15.41
2023-04-22T18:50:45.828Z,15.46
2023-04-22T18:53:12.583Z,15.39
2023-04-22T18:55:39.608Z,15.36
2023-04-22T18:58:06.269Z,15.33
2023-04-22T19:00:32.969Z,15.30
2023-04-22T19:02:59.714Z,15.19
2023-04-22T19:05:26.416Z,15.20
2023-04-22T19:07:53.213Z,15.25
2023-04-22T19:10:19.933Z,15.12
2023-04-22T19:12:46.665Z,15.11
2023-04-22T19:15:14.189Z,15.16
2023-04-22T19:17:42.595Z,15.03
2023-04-22T19:20:09.836Z,15.02
2023-04-22T19:22:36.633Z,14.97
2023-04-22T19:25:03.571Z,14.95
2023-04-22T19:27:30.394Z,14.91
2023-04-22T19:29:57.046Z,14.89
2023-04-22T19:32:23.829Z,14.91
2023-04-22T19:34:50.703Z,14.83
2023-04-22T19:37:17.404Z,14.86
2023-04-22T19:39:44.298Z,14.78
2023-04-22T19:42:11.542Z,14.74
2023-04-22T19:44:39.441Z,14.71
2023-04-22T19:47:06.351Z,14.70
2023-04-22T19:49:33.647Z,14.66
2023-04-22T19:52:02.336Z,14.69
2023-04-22T19:54:29.512Z,14.70
2023-04-22T19:56:58.543Z,14.74
2023-04-22T19:59:28.105Z,14.68
2023-04-22T20:01:55.045Z,14.66
2023-04-22T20:04:22.240Z,14.53
2023-04-22T20:06:51.483Z,14.59
2023-04-22T20:09:19.252Z,14.55
2023-04-22T20:11:46.416Z,14.46
2023-04-22T20:14:13.985Z,14.44
2023-04-22T20:16:42.341Z,14.34
2023-04-22T20:19:09.360Z,14.28
2023-04-22T20:21:36.643Z,14.27
2023-04-22T20:24:06.620Z,14.13
2023-04-22T20:26:33.545Z,13.93
2023-04-22T20:29:00.847Z,13.93
2023-04-22T20:31:27.688Z,13.83
2023-04-22T20:33:54.574Z,13.76
2023-04-22T20:36:22.528Z,13.66
2023-04-22T20:38:51.033Z,13.48
2023-04-22T20:41:20.887Z,13.44
2023-04-22T20:43:47.739Z,13.21
2023-04-22T20:46:14.615Z,13.23
2023-04-22T20:48:42.667Z,13.07
2023-04-22T20:51:09.340Z,13.03
2023-04-22T20:53:36.434Z,13.04
2023-04-22T20:56:03.456Z,12.98
2023-04-22T20:58:30.187Z,12.91
2023-04-22T21:00:56.920Z,12.88
2023-04-22T21:03:24.899Z,12.93
2023-04-22T21:05:52.422Z,12.96
2023-04-22T21:08:25.495Z,12.92
2023-04-22T21:10:54.606Z,12.97
2023-04-22T21:13:22.384Z,13.00
2023-04-22T21:15:59.313Z,13.19
2023-04-22T21:18:26.759Z,13.21
2023-04-22T21:20:56.270Z,13.22
2023-04-22T21:23:26.879Z,13.18
2023-04-22T21:25:59.325Z,12.98
2023-04-22T21:28:26.675Z,12.96
2023-04-22T21:30:53.912Z,12.99
2023-04-22T21:33:20.698Z,12.88
2023-04-22T21:35:47.662Z,12.87
2023-04-22T21:38:16.455Z,12.85
2023-04-22T21:40:43.126Z,12.81
2023-04-22T21:43:09.774Z,12.77
2023-04-22T21:45:36.471Z,12.76
2023-04-22T21:48:04.083Z,12.76
2023-04-22T21:50:31.730Z,12.77
2023-04-22T21:52:58.528Z,12.69
2023-04-22T21:55:25.209Z,12.67
2023-04-22T21:57:52.020Z,12.69
2023-04-22T22:00:19.304Z,12.69
2023-04-22T22:02:47.438Z,12.76
2023-04-22T22:05:15.583Z,12.78
2023-04-22T22:07:43.209Z,12.83
2023-04-22T22:10:15.454Z,12.82
2023-04-22T22:12:42.131Z,12.83
2023-04-22T22:15:09.940Z,12.80
2023-04-22T22:17:40.234Z,12.79
2023-04-22T22:20:11.854Z,12.76
2023-04-22T22:22:42.677Z,12.70
2023-04-22T22:25:12.197Z,12.61
2023-04-22T22:27:48.812Z,12.57
2023-04-22T22:30:17.307Z,12.56
2023-04-22T22:32:44.225Z,12.59
2023-04-22T22:35:10.998Z,12.60
2023-04-22T22:37:37.833Z,12.59
2023-04-22T22:40:05.704Z,12.60
2023-04-22T22:42:32.428Z,12.59
2023-04-22T22:44:59.066Z,12.59
2023-04-22T22:47:26.070Z,12.61
2023-04-22T22:49:53.507Z,12.64
2023-04-22T22:52:20.127Z,12.64
2023-04-22T22:54:49.122Z,12.67
2023-04-22T22:57:16.376Z,12.66
2023-04-22T22:59:43.148Z,12.65
2023-04-22T23:02:10.329Z,12.64
2023-04-22T23:04:39.491Z,12.61
2023-04-22T23:07:06.710Z,12.56
2023-04-22T23:09:33.472Z,12.51
2023-04-22T23:12:00.939Z,12.52
2023-04-22T23:14:28.198Z,12.45
2023-04-22T23:16:54.903Z,12.45
2023-04-22T23:19:22.276Z,12.40
2023-04-22T23:21:49.490Z,12.42
2023-04-22T23:24:16.475Z,12.41
2023-04-22T23:26:43.680Z,12.42
2023-04-22T23:29:10.878Z,12.40
2023-04-22T23:31:40.243Z,12.38
2023-04-22T23:34:07.534Z,12.36
2023-04-22T23:36:37.293Z,12.40
2023-04-22T23:39:05.798Z,12.41
2023-04-22T23:41:33.157Z,12.44
2023-04-22T23:43:59.997Z,12.39
2023-04-22T23:46:26.923Z,12.33
2023-04-22T23:48:54.184Z,12.30
2023-04-22T23:51:21.132Z,12.28
2023-04-22T23:53:47.775Z,12.29
2023-04-22T23:56:14.923Z,12.26
2023-04-22T23:58:42.173Z,12.26
